Time;durP1;ratioP1;P1;durP2;ratioP2;P2;SDS_P1;SDS_P2;PMS_P1;PMS_P2;Temp;Humidity;BMP_temperature;BMP_pressure;BME280_temperature;BME280_humidity;BME280_pressure;Samples;Min_cycle;Max_cycle;Signal;HPM_P1;HPM_P2
2023/12/27 00:02:15;;;;;;;;;;;2.10;99.90;;;;;;4978743;28;19932;-66
2023/12/27 00:04:41;;;;;;;;;;;2.10;99.90;;;;;;4913263;28;19932;-67
2023/12/27 00:07:07;;;;;;;;;;;2.10;99.90;;;;;;5010580;28;19951;-66
2023/12/27 00:09:32;;;;;;;;;;;2.10;99.90;;;;;;4953932;28;19929;-66
2023/12/27 00:11:58;;;;;;;;;;;2.20;99.90;;;;;;4978548;28;19925;-66
2023/12/27 00:14:24;;;;;;;;;;;2.20;99.90;;;;;;4955618;28;19936;-65
2023/12/27 00:16:50;;;;;;;;;;;2.30;99.90;;;;;;4980843;28;19936;-66
2023/12/27 00:19:16;;;;;;;;;;;2.30;99.90;;;;;;4946035;28;19925;-66
2023/12/27 00:21:42;;;;;;;;;;;2.30;99.90;;;;;;4975142;28;20396;-67
2023/12/27 00:24:08;;;;;;;;;;;2.30;99.90;;;;;;4944011;28;19925;-67
2023/12/27 00:26:34;;;;;;;;;;;2.30;99.90;;;;;;4978816;28;20470;-65
2023/12/27 00:29:00;;;;;;;;;;;2.20;99.90;;;;;;4948129;28;19990;-67
2023/12/27 00:31:26;;;;;;;;;;;2.20;99.90;;;;;;4971743;28;20457;-66
2023/12/27 00:33:52;;;;;;;;;;;2.20;99.90;;;;;;4953059;28;19994;-66
2023/12/27 00:36:18;;;;;;;;;;;2.20;99.90;;;;;;4976341;28;19936;-66
2023/12/27 00:38:44;;;;;;;;;;;2.10;99.90;;;;;;4933294;28;20026;-66
2023/12/27 00:41:10;;;;;;;;;;;2.10;99.90;;;;;;4971160;28;20681;-67
2023/12/27 00:43:36;;;;;;;;;;;2.00;99.90;;;;;;4945255;28;20339;-67
2023/12/27 00:46:04;;;;;;;;;;;2.00;99.90;;;;;;4969366;28;19925;-67
2023/12/27 00:48:30;;;;;;;;;;;2.00;99.90;;;;;;4953521;28;20479;-65
2023/12/27 00:50:58;;;;;;;;;;;2.00;99.90;;;;;;4980282;28;20043;-66
2023/12/27 00:53:24;;;;;;;;;;;2.00;99.90;;;;;;4950322;28;20516;-66
2023/12/27 00:55:50;;;;;;;;;;;2.00;99.90;;;;;;4983410;28;19925;-66
2023/12/27 00:58:16;;;;;;;;;;;2.00;99.90;;;;;;4952487;28;19929;-66
2023/12/27 01:00:42;;;;;;;;;;;2.00;99.90;;;;;;4980806;28;19925;-67
2023/12/27 01:03:08;;;;;;;;;;;2.00;99.90;;;;;;4959260;28;19925;-67
2023/12/27 01:05:34;;;;;;;;;;;2.00;99.90;;;;;;4976240;28;20763;-65
2023/12/27 01:08:00;;;;;;;;;;;2.00;99.90;;;;;;4968859;28;20453;-65
2023/12/27 01:10:26;;;;;;;;;;;2.00;99.90;;;;;;4967549;28;19978;-66
2023/12/27 01:12:52;;;;;;;;;;;1.90;99.90;;;;;;4945867;28;19929;-66
2023/12/27 01:15:18;;;;;;;;;;;1.90;99.90;;;;;;4975863;28;20316;-66
2023/12/27 01:17:43;;;;;;;;;;;1.80;99.90;;;;;;4980554;28;19930;-66
2023/12/27 01:20:10;;;;;;;;;;;1.90;99.90;;;;;;4989169;28;19925;-65
2023/12/27 01:22:35;;;;;;;;;;;1.80;99.90;;;;;;4951160;28;19929;-66
2023/12/27 01:25:01;;;;;;;;;;;1.80;99.90;;;;;;5005253;28;19957;-66
2023/12/27 01:27:27;;;;;;;;;;;1.70;99.90;;;;;;4951133;28;19925;-66
2023/12/27 01:29:53;;;;;;;;;;;1.70;99.90;;;;;;4977976;28;20547;-66
2023/12/27 01:32:19;;;;;;;;;;;1.60;99.90;;;;;;4970474;28;19947;-65
2023/12/27 01:34:45;;;;;;;;;;;1.50;99.90;;;;;;4942163;28;19925;-66
2023/12/27 01:37:11;;;;;;;;;;;1.50;99.90;;;;;;4962411;28;19925;-67
2023/12/27 01:39:37;;;;;;;;;;;1.50;99.90;;;;;;4947524;28;19949;-65
2023/12/27 01:42:03;;;;;;;;;;;1.40;99.90;;;;;;5010168;28;20543;-66
2023/12/27 01:44:29;;;;;;;;;;;1.50;99.90;;;;;;4981991;28;19936;-66
2023/12/27 01:46:55;;;;;;;;;;;1.40;99.90;;;;;;4980001;28;19925;-66
2023/12/27 01:49:21;;;;;;;;;;;1.40;99.90;;;;;;4946008;28;19925;-66
2023/12/27 01:51:47;;;;;;;;;;;1.40;99.90;;;;;;4979723;28;19940;-66
2023/12/27 01:54:14;;;;;;;;;;;1.30;99.90;;;;;;4958934;28;19925;-65
2023/12/27 01:56:42;;;;;;;;;;;1.30;99.90;;;;;;4981993;28;19929;-65
2023/12/27 01:59:08;;;;;;;;;;;1.30;99.90;;;;;;4945883;28;20192;-65
2023/12/27 02:01:33;;;;;;;;;;;1.30;99.90;;;;;;4977747;28;20972;-66
2023/12/27 02:03:59;;;;;;;;;;;1.30;99.90;;;;;;4951995;28;19998;-65
2023/12/27 02:06:25;;;;;;;;;;;1.20;99.90;;;;;;4971629;28;19932;-65
2023/12/27 02:08:51;;;;;;;;;;;1.20;99.90;;;;;;4941505;28;20160;-66
2023/12/27 02:11:17;;;;;;;;;;;1.20;99.90;;;;;;4975216;28;19936;-65
2023/12/27 02:13:43;;;;;;;;;;;1.20;99.90;;;;;;4955945;28;19926;-65
2023/12/27 02:16:09;;;;;;;;;;;1.20;99.90;;;;;;4981576;28;19925;-66
2023/12/27 02:18:35;;;;;;;;;;;1.20;99.90;;;;;;4970549;28;20458;-66
2023/12/27 02:21:02;;;;;;;;;;;1.10;99.90;;;;;;4991008;28;19983;-65
2023/12/27 02:23:29;;;;;;;;;;;1.10;99.90;;;;;;4946476;28;20533;-66
2023/12/27 02:25:56;;;;;;;;;;;1.10;99.90;;;;;;4969761;28;19928;-66
2023/12/27 02:28:21;;;;;;;;;;;1.10;99.90;;;;;;4967947;28;20451;-66
2023/12/27 02:30:47;;;;;;;;;;;1.10;99.90;;;;;;4993493;28;21142;-66
2023/12/27 02:33:13;;;;;;;;;;;1.10;99.90;;;;;;4953729;28;20004;-65
2023/12/27 02:35:39;;;;;;;;;;;1.10;99.90;;;;;;4974582;28;20176;-65
2023/12/27 02:38:05;;;;;;;;;;;1.00;99.90;;;;;;4947498;28;19925;-66
2023/12/27 02:40:31;;;;;;;;;;;1.10;99.90;;;;;;4966608;28;20428;-66
2023/12/27 02:42:57;;;;;;;;;;;1.10;99.90;;;;;;4949722;28;19936;-66
2023/12/27 02:45:23;;;;;;;;;;;1.10;99.90;;;;;;4979070;28;19925;-66
2023/12/27 02:47:49;;;;;;;;;;;1.10;99.90;;;;;;4969220;28;19952;-65
2023/12/27 02:50:15;;;;;;;;;;;1.10;99.90;;;;;;4989370;28;19929;-65
2023/12/27 02:52:40;;;;;;;;;;;1.10;99.90;;;;;;4954571;28;19936;-66
2023/12/27 02:55:06;;;;;;;;;;;1.20;99.90;;;;;;5004949;28;19988;-66
2023/12/27 02:57:32;;;;;;;;;;;1.20;99.90;;;;;;4950475;28;19925;-66
2023/12/27 02:59:58;;;;;;;;;;;1.30;99.90;;;;;;4985146;28;19925;-66
2023/12/27 03:02:24;;;;;;;;;;;1.40;99.90;;;;;;4952952;28;20525;-65
2023/12/27 03:04:50;;;;;;;;;;;1.50;99.90;;;;;;4953177;28;19932;-65
2023/12/27 03:07:16;;;;;;;;;;;1.60;99.90;;;;;;4994644;28;20208;-66
2023/12/27 03:09:42;;;;;;;;;;;1.60;99.90;;;;;;4945324;28;21266;-66
2023/12/27 03:12:08;;;;;;;;;;;1.60;99.90;;;;;;4978825;28;19929;-66
2023/12/27 03:14:34;;;;;;;;;;;1.60;99.90;;;;;;4961363;28;19929;-66
2023/12/27 03:17:00;;;;;;;;;;;1.60;99.90;;;;;;4979091;28;19953;-65
2023/12/27 03:19:26;;;;;;;;;;;1.60;99.90;;;;;;4957487;28;19933;-66
2023/12/27 03:21:52;;;;;;;;;;;1.60;99.90;;;;;;4977580;28;19924;-66
2023/12/27 03:24:18;;;;;;;;;;;1.50;99.90;;;;;;4969591;28;19925;-66
2023/12/27 03:26:43;;;;;;;;;;;1.50;99.90;;;;;;4976002;28;20007;-67
2023/12/27 03:29:09;;;;;;;;;;;1.60;99.90;;;;;;4947494;28;19952;-65
2023/12/27 03:31:35;;;;;;;;;;;1.50;99.90;;;;;;4977655;28;19940;-65
2023/12/27 03:34:01;;;;;;;;;;;1.50;99.90;;;;;;4973665;28;20009;-65
2023/12/27 03:36:27;;;;;;;;;;;1.50;99.90;;;;;;4978935;28;19944;-66
2023/12/27 03:38:53;;;;;;;;;;;1.50;99.90;;;;;;4949834;28;21936;-66
2023/12/27 03:41:19;;;;;;;;;;;1.60;99.90;;;;;;4978916;28;19925;-67
2023/12/27 03:43:45;;;;;;;;;;;1.50;99.90;;;;;;4947033;28;19982;-66
2023/12/27 03:46:11;;;;;;;;;;;1.50;99.90;;;;;;4974993;28;19948;-66
2023/12/27 03:48:37;;;;;;;;;;;1.60;99.90;;;;;;4937841;28;20140;-64
2023/12/27 03:51:03;;;;;;;;;;;1.60;99.90;;;;;;4968644;28;19984;-65
2023/12/27 03:53:29;;;;;;;;;;;1.70;99.90;;;;;;4949691;28;19929;-65
2023/12/27 03:55:55;;;;;;;;;;;1.70;99.90;;;;;;4982238;28;20459;-65
2023/12/27 03:58:21;;;;;;;;;;;1.70;99.90;;;;;;4954184;28;19999;-65
2023/12/27 04:00:47;;;;;;;;;;;1.70;99.90;;;;;;4987880;28;19928;-66
2023/12/27 04:03:14;;;;;;;;;;;1.60;99.90;;;;;;4949096;28;19924;-66
2023/12/27 04:05:40;;;;;;;;;;;1.60;99.90;;;;;;4970174;28;19925;-66
2023/12/27 04:08:05;;;;;;;;;;;1.60;99.90;;;;;;4950398;28;20592;-66
2023/12/27 04:10:31;;;;;;;;;;;1.60;99.90;;;;;;4979414;28;19956;-65
2023/12/27 04:13:01;;;;;;;;;;;1.60;99.90;;;;;;4948440;28;20767;-65
2023/12/27 04:15:27;;;;;;;;;;;1.60;99.90;;;;;;4981033;28;19925;-66
2023/12/27 04:17:53;;;;;;;;;;;1.60;99.90;;;;;;4945565;28;19959;-66
2023/12/27 04:20:19;;;;;;;;;;;1.50;99.90;;;;;;4968602;28;20522;-66
2023/12/27 04:22:45;;;;;;;;;;;1.60;99.90;;;;;;4946949;28;19930;-66
2023/12/27 04:25:10;;;;;;;;;;;1.60;99.90;;;;;;4976185;28;19925;-66
2023/12/27 04:27:38;;;;;;;;;;;1.60;99.90;;;;;;4946975;28;20766;-66
2023/12/27 04:30:04;;;;;;;;;;;1.60;99.90;;;;;;4950450;28;21048;-66
2023/12/27 04:32:31;;;;;;;;;;;1.60;99.90;;;;;;4962955;28;19929;-65
2023/12/27 04:34:57;;;;;;;;;;;1.60;99.90;;;;;;4986347;28;21073;-66
2023/12/27 04:37:22;;;;;;;;;;;1.60;99.90;;;;;;4962319;28;20023;-65
2023/12/27 04:39:48;;;;;;;;;;;1.60;99.90;;;;;;4974456;28;19925;-66
2023/12/27 04:42:14;;;;;;;;;;;1.60;99.90;;;;;;4977606;28;19925;-65
2023/12/27 04:44:40;;;;;;;;;;;1.70;99.90;;;;;;4945502;28;19932;-66
2023/12/27 04:47:07;;;;;;;;;;;1.70;99.90;;;;;;4977075;28;19925;-66
2023/12/27 04:49:33;;;;;;;;;;;1.70;99.90;;;;;;4954399;28;19929;-65
2023/12/27 04:51:59;;;;;;;;;;;1.70;99.90;;;;;;4976917;28;19929;-66
2023/12/27 04:54:25;;;;;;;;;;;1.70;99.90;;;;;;4937282;28;20863;-66
2023/12/27 04:56:54;;;;;;;;;;;1.70;99.90;;;;;;4977091;28;19929;-66
2023/12/27 04:59:21;;;;;;;;;;;1.70;99.90;;;;;;4951333;28;19924;-65
2023/12/27 05:01:47;;;;;;;;;;;1.70;99.90;;;;;;4979001;28;20925;-66
2023/12/27 05:04:13;;;;;;;;;;;1.70;99.90;;;;;;4950929;28;19932;-66
2023/12/27 05:06:38;;;;;;;;;;;1.80;99.90;;;;;;4981550;28;19937;-66
2023/12/27 05:09:04;;;;;;;;;;;1.80;99.90;;;;;;4977378;28;19924;-66
2023/12/27 05:11:31;;;;;;;;;;;1.80;99.90;;;;;;4984432;28;19944;-66
2023/12/27 05:13:56;;;;;;;;;;;1.80;99.90;;;;;;4981528;28;19924;-68
2023/12/27 05:16:22;;;;;;;;;;;1.80;99.90;;;;;;4977333;28;21038;-66
2023/12/27 05:18:48;;;;;;;;;;;1.90;99.90;;;;;;4951687;28;19925;-66
2023/12/27 05:21:15;;;;;;;;;;;1.90;99.90;;;;;;4977664;28;19932;-65
2023/12/27 05:23:40;;;;;;;;;;;1.90;99.90;;;;;;4944880;28;19948;-66
2023/12/27 05:26:07;;;;;;;;;;;2.00;99.90;;;;;;4977413;28;19996;-67
2023/12/27 05:28:32;;;;;;;;;;;2.00;99.90;;;;;;4950082;28;20770;-67
2023/12/27 05:30:58;;;;;;;;;;;2.00;99.90;;;;;;4995181;28;19933;-67
2023/12/27 05:33:24;;;;;;;;;;;2.00;99.90;;;;;;4944267;28;19925;-67
2023/12/27 05:35:50;;;;;;;;;;;2.10;99.90;;;;;;4972690;28;19933;-67
2023/12/27 05:38:16;;;;;;;;;;;2.10;99.90;;;;;;4944183;28;19936;-66
2023/12/27 05:40:43;;;;;;;;;;;2.10;99.90;;;;;;4961755;28;20232;-67
2023/12/27 05:43:09;;;;;;;;;;;2.10;99.90;;;;;;4983979;28;20999;-66
2023/12/27 05:45:35;;;;;;;;;;;2.10;99.90;;;;;;4976110;28;19929;-66
2023/12/27 05:48:01;;;;;;;;;;;2.10;99.90;;;;;;4961577;28;19928;-67
2023/12/27 05:50:27;;;;;;;;;;;2.10;99.90;;;;;;4996238;28;19937;-67
2023/12/27 05:52:54;;;;;;;;;;;2.10;99.90;;;;;;4953287;28;19928;-66
2023/12/27 05:55:20;;;;;;;;;;;2.10;99.90;;;;;;4995739;28;19932;-66
2023/12/27 05:57:46;;;;;;;;;;;2.10;99.90;;;;;;4963036;28;19925;-66
2023/12/27 06:00:15;;;;;;;;;;;2.20;99.90;;;;;;4983449;28;19925;-66
2023/12/27 06:02:41;;;;;;;;;;;2.20;99.90;;;;;;4952045;28;19994;-66
2023/12/27 06:05:07;;;;;;;;;;;2.20;99.90;;;;;;4959518;28;20944;-67
2023/12/27 06:07:34;;;;;;;;;;;2.20;99.90;;;;;;4948049;28;20957;-66
2023/12/27 06:10:01;;;;;;;;;;;2.20;99.90;;;;;;4973570;28;20046;-66
2023/12/27 06:12:27;;;;;;;;;;;2.30;99.90;;;;;;4951733;28;19929;-66
2023/12/27 06:14:53;;;;;;;;;;;2.30;99.90;;;;;;4953239;28;19925;-66
2023/12/27 06:17:19;;;;;;;;;;;2.30;99.90;;;;;;4977841;28;19932;-66
2023/12/27 06:19:45;;;;;;;;;;;2.40;99.90;;;;;;4954916;28;19952;-67
2023/12/27 06:22:11;;;;;;;;;;;2.40;99.90;;;;;;4981198;28;19925;-66
2023/12/27 06:24:37;;;;;;;;;;;2.40;99.90;;;;;;4945885;28;19934;-67
2023/12/27 06:27:06;;;;;;;;;;;2.40;99.90;;;;;;4996688;28;19925;-66
2023/12/27 06:29:32;;;;;;;;;;;2.40;99.90;;;;;;4947909;28;20444;-66
2023/12/27 06:31:58;;;;;;;;;;;2.50;99.90;;;;;;4980253;28;19940;-66
2023/12/27 06:34:24;;;;;;;;;;;2.60;99.90;;;;;;4936872;28;19929;-65
2023/12/27 06:36:51;;;;;;;;;;;2.70;99.90;;;;;;4980610;28;20328;-65
2023/12/27 06:39:17;;;;;;;;;;;2.80;99.90;;;;;;4884823;28;1770612;-67
2023/12/27 06:41:43;;;;;;;;;;;2.80;99.90;;;;;;4982492;28;20999;-66
2023/12/27 06:44:09;;;;;;;;;;;2.80;99.90;;;;;;4956098;28;19925;-66
2023/12/27 06:46:35;;;;;;;;;;;2.80;99.90;;;;;;4977095;28;19951;-66
2023/12/27 06:49:01;;;;;;;;;;;2.80;99.90;;;;;;4954626;28;19929;-67
2023/12/27 06:51:27;;;;;;;;;;;2.90;99.90;;;;;;4979623;28;19940;-66
2023/12/27 06:53:53;;;;;;;;;;;2.90;99.90;;;;;;4957028;28;19926;-66
2023/12/27 06:56:19;;;;;;;;;;;2.90;99.90;;;;;;4969710;28;19925;-66
2023/12/27 06:58:45;;;;;;;;;;;2.90;99.90;;;;;;4970231;28;19924;-66
2023/12/27 07:01:11;;;;;;;;;;;3.00;99.90;;;;;;4982041;28;19932;-66
2023/12/27 07:03:37;;;;;;;;;;;3.00;99.90;;;;;;4955056;28;20243;-66
2023/12/27 07:06:03;;;;;;;;;;;3.00;99.90;;;;;;4975955;28;19925;-66
2023/12/27 07:08:31;;;;;;;;;;;3.00;99.90;;;;;;4952735;28;19930;-67
2023/12/27 07:10:56;;;;;;;;;;;3.10;99.90;;;;;;4973028;28;19925;-67
2023/12/27 07:13:22;;;;;;;;;;;3.10;99.90;;;;;;4946021;28;19932;-67
2023/12/27 07:15:48;;;;;;;;;;;3.10;99.90;;;;;;4978679;28;19936;-67
2023/12/27 07:18:15;;;;;;;;;;;3.10;99.90;;;;;;4969305;28;20457;-67
2023/12/27 07:20:41;;;;;;;;;;;3.10;99.90;;;;;;4951387;28;19925;-67
2023/12/27 07:23:07;;;;;;;;;;;3.10;99.90;;;;;;4947678;28;20568;-69
2023/12/27 07:25:32;;;;;;;;;;;3.20;99.90;;;;;;4979306;28;19925;-68
2023/12/27 07:27:58;;;;;;;;;;;3.20;99.90;;;;;;4948070;28;19929;-68
2023/12/27 07:30:24;;;;;;;;;;;3.20;99.90;;;;;;4983038;28;19924;-68
2023/12/27 07:32:50;;;;;;;;;;;3.20;99.90;;;;;;4945987;28;21067;-68
2023/12/27 07:35:16;;;;;;;;;;;3.30;99.90;;;;;;4978394;28;19983;-67
2023/12/27 07:37:42;;;;;;;;;;;3.30;99.90;;;;;;4933534;28;19933;-67
2023/12/27 07:40:09;;;;;;;;;;;3.30;99.90;;;;;;4998463;28;19944;-67
2023/12/27 07:42:35;;;;;;;;;;;3.40;99.90;;;;;;4950794;28;19936;-67
2023/12/27 07:45:01;;;;;;;;;;;3.40;99.90;;;;;;4991871;28;19925;-67
2023/12/27 07:47:27;;;;;;;;;;;3.40;99.90;;;;;;4949205;28;19999;-67
2023/12/27 07:49:54;;;;;;;;;;;3.40;99.90;;;;;;4970957;28;19948;-68
2023/12/27 07:52:20;;;;;;;;;;;3.40;99.90;;;;;;4969035;28;19929;-71
2023/12/27 07:54:45;;;;;;;;;;;3.50;99.90;;;;;;4945586;28;19925;-71
2023/12/27 07:57:11;;;;;;;;;;;3.50;99.90;;;;;;4974388;28;20773;-71
2023/12/27 07:59:37;;;;;;;;;;;3.50;99.90;;;;;;4947397;28;19932;-71
2023/12/27 08:02:03;;;;;;;;;;;3.60;99.90;;;;;;4977671;28;20399;-71
2023/12/27 08:04:29;;;;;;;;;;;3.60;99.90;;;;;;4981723;28;20514;-71
2023/12/27 08:06:55;;;;;;;;;;;3.60;99.90;;;;;;4977804;28;19925;-67
2023/12/27 08:09:22;;;;;;;;;;;3.60;99.90;;;;;;4943706;28;20280;-67
2023/12/27 08:11:48;;;;;;;;;;;3.60;99.90;;;;;;4973536;28;19933;-68
2023/12/27 08:14:14;;;;;;;;;;;3.70;99.90;;;;;;4947301;28;19929;-67
2023/12/27 08:16:40;;;;;;;;;;;3.70;99.90;;;;;;4975719;28;19924;-67
2023/12/27 08:19:06;;;;;;;;;;;3.70;99.90;;;;;;4953989;28;19931;-67
2023/12/27 08:21:32;;;;;;;;;;;3.70;99.90;;;;;;4978001;28;19963;-67
2023/12/27 08:23:58;;;;;;;;;;;3.80;99.90;;;;;;4960235;28;20524;-70
2023/12/27 08:26:23;;;;;;;;;;;3.80;99.90;;;;;;4983103;28;19925;-70
2023/12/27 08:28:50;;;;;;;;;;;3.80;99.90;;;;;;4971965;28;19925;-70
2023/12/27 08:31:16;;;;;;;;;;;3.80;99.90;;;;;;4977002;28;20303;-70
2023/12/27 08:33:48;;;;;;;;;;;3.90;99.90;;;;;;4977256;28;19924;-68
2023/12/27 08:36:14;;;;;;;;;;;3.90;99.90;;;;;;4979525;28;19925;-67
2023/12/27 08:38:41;;;;;;;;;;;4.00;99.90;;;;;;4939284;28;19929;-67
2023/12/27 08:41:07;;;;;;;;;;;4.00;99.90;;;;;;4974770;28;19925;-68
2023/12/27 08:43:35;;;;;;;;;;;4.00;99.90;;;;;;4946199;28;19990;-67
2023/12/27 08:46:01;;;;;;;;;;;4.00;99.90;;;;;;4980826;28;19925;-68
2023/12/27 08:48:27;;;;;;;;;;;4.10;99.90;;;;;;4946748;28;19925;-67
2023/12/27 08:50:53;;;;;;;;;;;4.10;99.90;;;;;;4975769;28;20474;-67
2023/12/27 08:53:19;;;;;;;;;;;4.10;99.90;;;;;;4947134;28;19933;-68
2023/12/27 08:55:45;;;;;;;;;;;4.20;99.90;;;;;;4979275;28;19925;-68
2023/12/27 08:58:12;;;;;;;;;;;4.20;99.90;;;;;;4947088;28;20130;-67
2023/12/27 09:00:39;;;;;;;;;;;4.30;99.90;;;;;;4971888;28;19925;-67
2023/12/27 09:03:05;;;;;;;;;;;4.30;99.90;;;;;;4946455;28;19925;-67
2023/12/27 09:05:31;;;;;;;;;;;4.30;99.90;;;;;;4974885;28;20014;-68
2023/12/27 09:07:57;;;;;;;;;;;4.30;99.90;;;;;;4968993;28;20360;-69
2023/12/27 09:10:23;;;;;;;;;;;4.40;99.90;;;;;;4960380;28;20652;-67
2023/12/27 09:12:49;;;;;;;;;;;4.40;99.90;;;;;;4958965;28;20475;-67
2023/12/27 09:15:15;;;;;;;;;;;4.40;99.90;;;;;;4975024;28;20207;-68
2023/12/27 09:17:41;;;;;;;;;;;4.50;99.90;;;;;;4948424;28;19940;-68
2023/12/27 09:20:07;;;;;;;;;;;4.50;99.90;;;;;;4972313;28;19925;-68
2023/12/27 09:22:34;;;;;;;;;;;4.50;99.90;;;;;;4948492;28;19974;-68
2023/12/27 09:24:59;;;;;;;;;;;4.60;99.90;;;;;;4962496;28;20673;-68
2023/12/27 09:27:26;;;;;;;;;;;4.60;99.90;;;;;;4945808;28;20071;-66
2023/12/27 09:29:52;;;;;;;;;;;4.60;99.90;;;;;;4983807;28;19925;-68
2023/12/27 09:32:18;;;;;;;;;;;4.60;99.90;;;;;;4978301;28;20520;-67
2023/12/27 09:34:44;;;;;;;;;;;4.70;99.90;;;;;;4977324;28;19929;-67
2023/12/27 09:37:10;;;;;;;;;;;4.70;99.90;;;;;;5006654;28;19932;-67
2023/12/27 09:39:37;;;;;;;;;;;4.70;99.90;;;;;;4947979;28;20454;-67
2023/12/27 09:42:03;;;;;;;;;;;4.80;99.90;;;;;;4977987;28;19925;-67
2023/12/27 09:44:32;;;;;;;;;;;4.80;99.90;;;;;;4981120;28;20379;-67
2023/12/27 09:47:00;;;;;;;;;;;4.80;99.90;;;;;;4969125;28;20056;-67
2023/12/27 09:49:26;;;;;;;;;;;4.80;99.90;;;;;;4981625;28;21094;-67
2023/12/27 09:51:52;;;;;;;;;;;4.90;99.90;;;;;;4979620;28;20507;-67
2023/12/27 09:54:20;;;;;;;;;;;4.90;99.90;;;;;;4945019;28;19926;-67
2023/12/27 09:56:47;;;;;;;;;;;4.90;99.90;;;;;;4978359;28;20318;-67
2023/12/27 09:59:16;;;;;;;;;;;4.90;99.90;;;;;;4958936;28;19932;-69
2023/12/27 10:01:44;;;;;;;;;;;5.00;99.90;;;;;;4976641;28;20535;-67
2023/12/27 10:04:27;;;;;;;;;;;4.90;99.90;;;;;;4939866;28;19956;-70
2023/12/27 10:06:53;;;;;;;;;;;5.00;99.90;;;;;;4979611;28;19925;-70
2023/12/27 10:09:19;;;;;;;;;;;5.00;99.90;;;;;;4948221;28;20004;-70
2023/12/27 10:11:45;;;;;;;;;;;5.00;99.90;;;;;;5007047;28;20038;-71
2023/12/27 10:14:12;;;;;;;;;;;5.00;99.90;;;;;;4982738;28;19935;-71
2023/12/27 10:16:38;;;;;;;;;;;5.00;99.90;;;;;;4983164;28;20290;-72
2023/12/27 10:19:05;;;;;;;;;;;5.10;99.90;;;;;;4979814;28;19925;-70
2023/12/27 10:21:40;;;;;;;;;;;5.20;99.90;;;;;;4979243;28;19929;-70
2023/12/27 10:24:06;;;;;;;;;;;5.20;99.90;;;;;;4964922;28;20003;-70
2023/12/27 10:26:32;;;;;;;;;;;5.20;99.90;;;;;;4986523;28;19932;-69
2023/12/27 10:28:59;;;;;;;;;;;5.20;99.90;;;;;;4954034;28;19929;-70
2023/12/27 10:31:25;;;;;;;;;;;5.30;99.90;;;;;;4978867;28;19932;-70
2023/12/27 10:33:51;;;;;;;;;;;5.30;99.90;;;;;;4941944;28;19932;-69
2023/12/27 10:36:18;;;;;;;;;;;5.30;99.90;;;;;;4975214;28;19929;-70
2023/12/27 10:38:45;;;;;;;;;;;5.40;99.90;;;;;;4953826;28;19940;-69
2023/12/27 10:41:11;;;;;;;;;;;5.40;99.90;;;;;;4977924;28;19933;-71
2023/12/27 10:43:36;;;;;;;;;;;5.40;99.90;;;;;;4955674;28;20285;-69
2023/12/27 10:46:09;;;;;;;;;;;5.40;99.90;;;;;;4980640;28;19925;-70
2023/12/27 10:48:39;;;;;;;;;;;5.50;99.90;;;;;;4944187;28;19935;-71
2023/12/27 10:51:08;;;;;;;;;;;5.50;99.90;;;;;;4967417;28;19925;-71
2023/12/27 10:53:35;;;;;;;;;;;5.50;99.90;;;;;;4947137;28;19930;-69
2023/12/27 10:56:01;;;;;;;;;;;5.50;99.90;;;;;;4970097;28;19925;-70
2023/12/27 10:58:29;;;;;;;;;;;5.50;99.90;;;;;;4953369;28;19925;-69
2023/12/27 11:00:55;;;;;;;;;;;5.50;99.90;;;;;;4955718;28;19977;-70
2023/12/27 11:03:21;;;;;;;;;;;5.50;99.90;;;;;;4972796;28;20176;-70
2023/12/27 11:05:47;;;;;;;;;;;5.60;99.90;;;;;;4974269;28;19929;-70
2023/12/27 11:08:15;;;;;;;;;;;5.50;99.90;;;;;;4947985;28;19940;-70
2023/12/27 11:10:44;;;;;;;;;;;5.60;99.90;;;;;;4976442;28;20224;-71
2023/12/27 11:13:11;;;;;;;;;;;5.50;99.90;;;;;;4951764;28;19951;-70
2023/12/27 11:15:44;;;;;;;;;;;5.60;99.90;;;;;;4994996;28;19925;-70
2023/12/27 11:18:11;;;;;;;;;;;5.60;99.90;;;;;;4945517;28;20479;-70
2023/12/27 11:20:39;;;;;;;;;;;5.60;99.90;;;;;;4970398;28;20876;-72
2023/12/27 11:23:05;;;;;;;;;;;5.60;99.90;;;;;;4952139;28;19973;-70
2023/12/27 11:25:31;;;;;;;;;;;5.60;99.90;;;;;;5003132;28;19925;-71
2023/12/27 11:28:00;;;;;;;;;;;5.60;99.90;;;;;;4950292;28;19929;-71
2023/12/27 11:30:26;;;;;;;;;;;5.70;99.90;;;;;;4975874;28;19929;-72
2023/12/27 11:32:52;;;;;;;;;;;5.60;99.90;;;;;;4949164;28;19940;-72
2023/12/27 11:35:27;;;;;;;;;;;5.60;99.90;;;;;;4967556;28;20446;-73
2023/12/27 11:38:11;;;;;;;;;;;5.60;99.90;;;;;;4949248;28;19929;-74
2023/12/27 11:40:38;;;;;;;;;;;5.60;99.90;;;;;;4997688;28;19929;-73
2023/12/27 11:43:04;;;;;;;;;;;5.60;99.90;;;;;;4953421;28;19968;-76
2023/12/27 11:45:49;;;;;;;;;;;5.60;99.90;;;;;;4985049;28;21089;-77
2023/12/27 11:48:16;;;;;;;;;;;5.60;99.90;;;;;;4955732;28;19925;-78
2023/12/27 11:50:43;;;;;;;;;;;5.60;99.90;;;;;;4980604;28;20749;-77
2023/12/27 11:53:09;;;;;;;;;;;5.60;99.90;;;;;;4946070;28;20053;-78
2023/12/27 11:55:35;;;;;;;;;;;5.60;99.90;;;;;;4987665;28;19925;-78
2023/12/27 11:58:01;;;;;;;;;;;5.60;99.90;;;;;;4955228;28;19930;-76
2023/12/27 12:00:30;;;;;;;;;;;5.60;99.90;;;;;;4985580;28;20225;-78
2023/12/27 12:02:57;;;;;;;;;;;5.60;99.90;;;;;;4953901;28;19925;-76
2023/12/27 12:05:47;;;;;;;;;;;5.60;99.90;;;;;;4973977;28;19962;-77
2023/12/27 12:08:15;;;;;;;;;;;5.60;99.90;;;;;;4954492;28;19929;-78
2023/12/27 12:10:41;;;;;;;;;;;5.60;99.90;;;;;;4967839;28;19932;-77
2023/12/27 12:13:08;;;;;;;;;;;5.60;99.90;;;;;;4948900;28;19929;-77
2023/12/27 12:15:34;;;;;;;;;;;5.60;99.90;;;;;;4973818;28;19936;-76
2023/12/27 12:18:00;;;;;;;;;;;5.70;99.90;;;;;;4929878;28;19941;-75
2023/12/27 12:20:27;;;;;;;;;;;5.70;99.90;;;;;;4973568;28;19933;-76
2023/12/27 12:22:54;;;;;;;;;;;5.70;99.90;;;;;;4977281;28;20319;-77
2023/12/27 12:25:26;;;;;;;;;;;5.70;99.90;;;;;;4977505;28;19929;-74
2023/12/27 12:27:52;;;;;;;;;;;5.80;99.90;;;;;;4948621;28;19932;-74
2023/12/27 12:30:20;;;;;;;;;;;5.70;99.90;;;;;;4953265;28;19936;-72
2023/12/27 12:32:46;;;;;;;;;;;5.80;99.90;;;;;;4954007;28;21067;-74
2023/12/27 12:35:13;;;;;;;;;;;5.80;99.90;;;;;;4955841;28;19925;-73
2023/12/27 12:37:39;;;;;;;;;;;5.80;99.90;;;;;;4993846;28;19929;-74
2023/12/27 12:40:08;;;;;;;;;;;5.80;99.90;;;;;;4950453;28;19932;-73
2023/12/27 12:42:34;;;;;;;;;;;5.80;99.90;;;;;;4985689;28;19929;-73
2023/12/27 12:45:04;;;;;;;;;;;5.80;99.90;;;;;;4957809;28;20619;-73
2023/12/27 12:47:31;;;;;;;;;;;5.90;99.90;;;;;;4977114;28;19936;-72
2023/12/27 12:49:57;;;;;;;;;;;5.90;99.90;;;;;;4931877;28;19932;-73
2023/12/27 12:52:23;;;;;;;;;;;5.90;99.90;;;;;;4994053;28;19929;-73
2023/12/27 12:54:49;;;;;;;;;;;5.90;99.90;;;;;;4951482;28;19929;-73
2023/12/27 12:57:15;;;;;;;;;;;5.90;99.90;;;;;;4991445;28;20006;-73
2023/12/27 12:59:41;;;;;;;;;;;6.00;99.90;;;;;;4981783;28;19931;-73
2023/12/27 13:02:07;;;;;;;;;;;6.00;99.90;;;;;;4979590;28;19932;-73
2023/12/27 13:04:33;;;;;;;;;;;6.00;99.90;;;;;;4943676;28;21254;-72
2023/12/27 13:06:59;;;;;;;;;;;6.00;99.90;;;;;;4974858;28;19924;-73
2023/12/27 13:09:25;;;;;;;;;;;6.00;99.90;;;;;;4936842;28;19932;-73
2023/12/27 13:11:51;;;;;;;;;;;6.10;99.90;;;;;;4976813;28;20095;-73
2023/12/27 13:14:17;;;;;;;;;;;6.10;99.90;;;;;;4966243;28;19937;-73
2023/12/27 13:16:43;;;;;;;;;;;6.10;99.90;;;;;;4974885;28;19925;-72
2023/12/27 13:19:09;;;;;;;;;;;6.20;99.90;;;;;;4977496;28;19943;-73
2023/12/27 13:21:35;;;;;;;;;;;6.20;99.90;;;;;;4986025;28;19936;-73
2023/12/27 13:24:01;;;;;;;;;;;6.20;99.90;;;;;;4951151;28;19932;-73
2023/12/27 13:26:27;;;;;;;;;;;6.30;99.90;;;;;;4981446;28;20044;-73
2023/12/27 13:28:53;;;;;;;;;;;6.30;99.90;;;;;;4946560;28;19933;-74
2023/12/27 13:31:19;;;;;;;;;;;6.40;99.90;;;;;;4993663;28;19932;-72
2023/12/27 13:33:47;;;;;;;;;;;6.40;99.90;;;;;;4945570;28;20424;-71
2023/12/27 13:36:13;;;;;;;;;;;6.40;99.90;;;;;;4978620;28;19933;-72
2023/12/27 13:38:39;;;;;;;;;;;6.50;99.90;;;;;;4965943;28;19944;-73
2023/12/27 13:41:04;;;;;;;;;;;6.50;99.90;;;;;;4986989;28;19971;-72
2023/12/27 13:43:30;;;;;;;;;;;6.50;99.90;;;;;;4958324;28;19936;-73
2023/12/27 13:45:57;;;;;;;;;;;6.60;99.90;;;;;;4987405;28;19925;-71
2023/12/27 13:48:23;;;;;;;;;;;6.60;99.90;;;;;;5009708;28;20601;-71
2023/12/27 13:50:53;;;;;;;;;;;6.60;99.90;;;;;;5025793;28;19930;-72
2023/12/27 13:53:22;;;;;;;;;;;6.70;99.90;;;;;;5004947;28;20350;-73
2023/12/27 13:55:48;;;;;;;;;;;6.70;99.90;;;;;;5042990;28;19928;-74
2023/12/27 13:58:14;;;;;;;;;;;6.70;99.90;;;;;;4992041;28;20033;-74
2023/12/27 14:00:43;;;;;;;;;;;6.70;99.90;;;;;;4990179;28;19933;-75
2023/12/27 14:03:09;;;;;;;;;;;6.80;99.90;;;;;;4956848;28;20327;-71
2023/12/27 14:05:37;;;;;;;;;;;6.80;99.90;;;;;;4985689;28;20810;-74
2023/12/27 14:08:06;;;;;;;;;;;6.90;99.90;;;;;;4986471;28;19933;-72
2023/12/27 14:10:32;;;;;;;;;;;6.80;99.90;;;;;;4993030;28;19932;-74
2023/12/27 14:12:58;;;;;;;;;;;6.90;99.90;;;;;;4951068;28;19933;-70
2023/12/27 14:15:24;;;;;;;;;;;6.90;99.90;;;;;;4968390;28;19959;-70
2023/12/27 14:17:50;;;;;;;;;;;6.90;99.90;;;;;;4952832;28;20040;-70
2023/12/27 14:20:16;;;;;;;;;;;6.90;99.90;;;;;;4977414;28;19932;-71
2023/12/27 14:22:42;;;;;;;;;;;7.00;99.90;;;;;;4972673;28;19925;-71
2023/12/27 14:25:09;;;;;;;;;;;7.00;99.90;;;;;;4948331;28;20604;-71
2023/12/27 14:27:35;;;;;;;;;;;7.00;99.90;;;;;;4981369;28;19925;-70